createdAt,value
2023-02-09T00:02:13.211Z,100.00
2023-02-09T00:04:41.152Z,100.00
2023-02-09T00:07:10.448Z,100.00
2023-02-09T00:09:38.493Z,100.00
2023-02-09T00:12:24.150Z,100.00
2023-02-09T00:14:52.274Z,100.00
2023-02-09T00:17:20.163Z,100.00
2023-02-09T00:19:48.110Z,100.00
2023-02-09T00:22:17.783Z,100.00
2023-02-09T00:24:45.839Z,100.00
2023-02-09T00:27:17.352Z,100.00
2023-02-09T00:29:45.298Z,100.00
2023-02-09T00:32:13.342Z,100.00
2023-02-09T00:34:41.217Z,100.00
2023-02-09T00:37:09.099Z,100.00
2023-02-09T00:39:38.437Z,100.00
2023-02-09T00:42:11.158Z,100.00
2023-02-09T00:44:41.758Z,100.00
2023-02-09T00:47:10.235Z,100.00
2023-02-09T00:49:40.067Z,100.00
2023-02-09T00:52:09.899Z,100.00
2023-02-09T00:54:39.456Z,100.00
2023-02-09T00:57:07.393Z,100.00
2023-02-09T00:59:36.123Z,100.00
2023-02-09T01:02:04.270Z,100.00
2023-02-09T01:04:32.696Z,100.00
2023-02-09T01:07:00.632Z,100.00
2023-02-09T01:09:28.533Z,100.00
2023-02-09T01:11:57.795Z,100.00
2023-02-09T01:14:26.060Z,100.00
2023-02-09T01:16:53.968Z,100.00
2023-02-09T01:19:21.882Z,100.00
2023-02-09T01:21:50.015Z,100.00
2023-02-09T01:24:17.964Z,100.00
2023-02-09T01:26:45.839Z,100.00
2023-02-09T01:29:17.646Z,100.00
2023-02-09T01:31:46.183Z,100.00
2023-02-09T01:34:17.176Z,100.00
2023-02-09T01:36:45.642Z,100.00
2023-02-09T01:39:14.981Z,100.00
2023-02-09T01:41:43.976Z,100.00
2023-02-09T01:44:59.875Z,100.00
2023-02-09T01:47:29.188Z,100.00
2023-02-09T01:49:57.260Z,100.00
2023-02-09T01:52:29.172Z,100.00
2023-02-09T01:55:01.335Z,100.00
2023-02-09T01:57:34.106Z,100.00
2023-02-09T02:00:06.625Z,100.00
2023-02-09T02:02:36.320Z,100.00
2023-02-09T02:05:04.451Z,100.00
2023-02-09T02:07:37.391Z,100.00
2023-02-09T02:10:05.795Z,100.00
2023-02-09T02:12:34.295Z,100.00
2023-02-09T02:15:02.192Z,100.00
2023-02-09T02:17:46.388Z,100.00
2023-02-09T02:20:45.351Z,100.00
2023-02-09T02:23:22.465Z,100.00
2023-02-09T02:26:23.540Z,100.00
2023-02-09T02:29:25.944Z,100.00
2023-02-09T02:32:06.751Z,100.00
2023-02-09T02:34:47.282Z,100.00
2023-02-09T02:37:31.984Z,100.00
2023-02-09T02:40:10.467Z,100.00
2023-02-09T02:42:49.634Z,100.00
2023-02-09T02:45:26.370Z,100.00
2023-02-09T02:48:01.813Z,100.00
2023-02-09T02:50:32.573Z,100.00
2023-02-09T02:53:05.020Z,100.00
2023-02-09T02:55:35.007Z,100.00
2023-02-09T02:58:09.307Z,100.00
2023-02-09T03:00:43.191Z,100.00
2023-02-09T03:03:17.226Z,100.00
2023-02-09T03:05:46.226Z,100.00
2023-02-09T03:08:14.109Z,100.00
2023-02-09T03:10:43.426Z,100.00
2023-02-09T03:13:33.190Z,100.00
2023-02-09T03:16:14.109Z,100.00
2023-02-09T03:18:58.176Z,100.00
2023-02-09T03:21:37.417Z,100.00
2023-02-09T03:24:11.241Z,100.00
2023-02-09T03:26:44.460Z,100.00
2023-02-09T03:29:15.256Z,100.00
2023-02-09T03:31:43.341Z,100.00
2023-02-09T03:34:12.688Z,100.00
2023-02-09T03:36:41.507Z,100.00
2023-02-09T03:39:09.438Z,100.00
2023-02-09T03:41:38.169Z,100.00
2023-02-09T03:44:23.558Z,100.00
2023-02-09T03:46:51.591Z,100.00
2023-02-09T03:49:20.957Z,100.00
2023-02-09T03:51:48.931Z,100.00
2023-02-09T03:54:16.945Z,100.00
2023-02-09T03:56:44.897Z,100.00
2023-02-09T03:59:12.784Z,100.00
2023-02-09T04:01:40.744Z,100.00
2023-02-09T04:04:08.783Z,100.00
2023-02-09T04:06:38.682Z,100.00
2023-02-09T04:09:09.210Z,100.00
2023-02-09T04:11:37.382Z,100.00
2023-02-09T04:14:06.261Z,100.00
2023-02-09T04:16:35.395Z,100.00
2023-02-09T04:19:05.934Z,100.00
2023-02-09T04:21:33.820Z,100.00
2023-02-09T04:24:03.080Z,100.00
2023-02-09T04:26:30.974Z,100.00
2023-02-09T04:28:58.930Z,100.00
2023-02-09T04:31:27.044Z,100.00
2023-02-09T04:33:54.982Z,100.00
2023-02-09T04:36:23.438Z,100.00
2023-02-09T04:38:51.531Z,100.00
2023-02-09T04:41:20.758Z,100.00
2023-02-09T04:43:48.736Z,100.00
2023-02-09T04:46:18.184Z,100.00
2023-02-09T04:48:46.637Z,100.00
2023-02-09T04:51:14.594Z,100.00
2023-02-09T04:53:42.775Z,100.00
2023-02-09T04:56:15.137Z,100.00
2023-02-09T04:59:03.102Z,100.00
2023-02-09T05:01:31.749Z,100.00
2023-02-09T05:03:59.849Z,100.00
2023-02-09T05:06:27.838Z,100.00
2023-02-09T05:08:55.698Z,100.00
2023-02-09T05:11:25.514Z,100.00
2023-02-09T05:13:55.087Z,100.00
2023-02-09T05:16:23.181Z,100.00
2023-02-09T05:18:51.422Z,100.00
2023-02-09T05:21:19.352Z,100.00
2023-02-09T05:23:47.296Z,100.00
2023-02-09T05:26:15.185Z,100.00
2023-02-09T05:28:43.281Z,100.00
2023-02-09T05:31:12.580Z,100.00
2023-02-09T05:33:40.520Z,100.00
2023-02-09T05:36:12.292Z,100.00
2023-02-09T05:38:40.463Z,100.00
2023-02-09T05:41:10.444Z,100.00
2023-02-09T05:43:39.773Z,100.00
2023-02-09T05:46:08.578Z,100.00
2023-02-09T05:48:37.918Z,100.00
2023-02-09T05:51:06.171Z,100.00
2023-02-09T05:53:34.006Z,100.00
2023-02-09T05:56:01.861Z,100.00
2023-02-09T05:58:29.756Z,100.00
2023-02-09T06:00:57.609Z,100.00
2023-02-09T06:03:25.538Z,100.00
2023-02-09T06:05:54.796Z,100.00
2023-02-09T06:08:22.718Z,100.00
2023-02-09T06:10:50.655Z,100.00
2023-02-09T06:13:18.510Z,100.00
2023-02-09T06:15:46.459Z,100.00
2023-02-09T06:18:14.401Z,100.00
2023-02-09T06:20:42.277Z,100.00
2023-02-09T06:23:11.519Z,100.00
2023-02-09T06:25:40.050Z,100.00
2023-02-09T06:28:08.344Z,100.00
2023-02-09T06:30:36.294Z,100.00
2023-02-09T06:33:04.145Z,100.00
2023-02-09T06:35:32.057Z,100.00
2023-02-09T06:38:00.143Z,100.00
2023-02-09T06:40:30.075Z,100.00
2023-02-09T06:42:58.201Z,100.00
2023-02-09T06:45:26.086Z,100.00
2023-02-09T06:47:54.311Z,100.00
2023-02-09T06:50:22.364Z,100.00
2023-02-09T06:52:50.453Z,100.00
2023-02-09T06:55:18.425Z,100.00
2023-02-09T06:57:47.705Z,100.00
2023-02-09T07:00:16.538Z,100.00
2023-02-09T07:02:44.469Z,100.00
2023-02-09T07:05:13.290Z,100.00
2023-02-09T07:07:41.473Z,100.00
2023-02-09T07:10:11.773Z,100.00
2023-02-09T07:12:40.770Z,100.00
2023-02-09T07:15:11.107Z,100.00
2023-02-09T07:17:39.889Z,100.00
2023-02-09T07:20:09.152Z,100.00
2023-02-09T07:22:37.136Z,100.00
2023-02-09T07:25:05.530Z,100.00
2023-02-09T07:27:33.544Z,100.00
2023-02-09T07:30:01.553Z,100.00
2023-02-09T07:32:30.894Z,100.00
2023-02-09T07:34:59.490Z,100.00
2023-02-09T07:37:27.390Z,100.00
2023-02-09T07:39:55.365Z,100.00
2023-02-09T07:42:23.530Z,100.00
2023-02-09T07:44:51.407Z,100.00
2023-02-09T07:47:19.447Z,100.00
2023-02-09T07:49:48.733Z,100.00
2023-02-09T07:52:16.571Z,100.00
2023-02-09T07:54:44.561Z,100.00
2023-02-09T07:57:13.836Z,100.00
2023-02-09T07:59:41.772Z,100.00
2023-02-09T08:02:18.336Z,100.00
2023-02-09T08:04:46.316Z,100.00
2023-02-09T08:07:15.639Z,100.00
2023-02-09T08:09:45.151Z,100.00
2023-02-09T08:12:13.265Z,100.00
2023-02-09T08:14:48.195Z,100.00
2023-02-09T08:17:21.471Z,100.00
2023-02-09T08:19:53.622Z,100.00
2023-02-09T08:22:24.597Z,100.00
2023-02-09T08:24:52.987Z,100.00
2023-02-09T08:27:21.133Z,100.00
2023-02-09T08:29:49.227Z,100.00
2023-02-09T08:32:17.270Z,100.00
2023-02-09T08:34:45.228Z,100.00
2023-02-09T08:37:13.100Z,100.00
2023-02-09T08:39:42.462Z,100.00
2023-02-09T08:42:10.364Z,100.00
2023-02-09T08:44:38.261Z,100.00
2023-02-09T08:47:06.393Z,100.00
2023-02-09T08:49:34.492Z,100.00
2023-02-09T08:52:02.410Z,100.00
2023-02-09T08:54:30.474Z,100.00
2023-02-09T08:56:59.719Z,100.00
2023-02-09T08:59:27.644Z,100.00
2023-02-09T09:01:55.878Z,100.00
2023-02-09T09:04:23.898Z,100.00
2023-02-09T09:06:51.799Z,100.00
2023-02-09T09:09:19.770Z,100.00
2023-02-09T09:11:47.821Z,99.87
2023-02-09T09:14:17.071Z,99.63
2023-02-09T09:16:45.022Z,97.69
2023-02-09T09:19:13.049Z,99.07
2023-02-09T09:21:40.966Z,97.07
2023-02-09T09:24:09.158Z,95.73
2023-02-09T09:26:37.030Z,94.38
2023-02-09T09:29:04.984Z,94.38
2023-02-09T09:31:34.557Z,95.68
2023-02-09T09:34:02.506Z,94.70
2023-02-09T09:36:31.839Z,92.88
2023-02-09T09:38:59.780Z,92.17
2023-02-09T09:41:32.439Z,91.00
2023-02-09T09:44:02.221Z,91.24
2023-02-09T09:46:37.952Z,88.19
2023-02-09T09:49:06.877Z,82.14
2023-02-09T09:51:40.053Z,79.25
2023-02-09T09:54:15.904Z,78.70
2023-02-09T09:56:44.345Z,77.97
2023-02-09T09:59:18.770Z,75.28
2023-02-09T10:01:48.535Z,72.74
2023-02-09T10:04:17.243Z,71.45
2023-02-09T10:06:47.856Z,69.78
2023-02-09T10:09:25.714Z,66.65
2023-02-09T10:12:03.375Z,65.72
2023-02-09T10:14:34.792Z,65.00
2023-02-09T10:17:04.238Z,63.05
2023-02-09T10:19:32.870Z,61.07
2023-02-09T10:22:00.797Z,60.58
2023-02-09T10:24:30.753Z,59.14
2023-02-09T10:27:05.227Z,58.64
2023-02-09T10:29:33.196Z,58.72
2023-02-09T10:32:08.677Z,57.94
2023-02-09T10:34:45.539Z,57.10
2023-02-09T10:37:21.408Z,57.86
2023-02-09T10:40:00.392Z,57.62
2023-02-09T10:42:31.480Z,56.62
2023-02-09T10:45:10.112Z,57.09
2023-02-09T10:47:39.500Z,56.44
2023-02-09T10:50:18.392Z,55.74
2023-02-09T10:52:56.983Z,54.96
2023-02-09T10:55:29.284Z,55.34
2023-02-09T10:58:21.336Z,53.72
2023-02-09T11:00:53.807Z,53.73
2023-02-09T11:03:26.330Z,53.50
2023-02-09T11:06:04.913Z,53.40
2023-02-09T11:08:47.445Z,54.10
2023-02-09T11:11:26.865Z,53.56
2023-02-09T11:13:55.017Z,52.69
2023-02-09T11:16:58.254Z,53.14
2023-02-09T11:19:51.614Z,52.53
2023-02-09T11:22:29.339Z,52.37
2023-02-09T11:25:05.916Z,51.22
2023-02-09T11:27:47.227Z,50.49
2023-02-09T11:30:40.323Z,51.66
2023-02-09T11:33:16.372Z,50.82
2023-02-09T11:35:55.501Z,50.35
2023-02-09T11:38:36.707Z,51.16
2023-02-09T11:41:29.374Z,50.18
2023-02-09T11:44:02.346Z,49.84
2023-02-09T11:46:35.278Z,50.84
2023-02-09T11:49:08.489Z,49.51
2023-02-09T11:51:40.708Z,50.65
2023-02-09T11:54:16.089Z,49.24
2023-02-09T11:56:48.396Z,49.92
2023-02-09T11:59:23.502Z,49.04
2023-02-09T12:01:57.869Z,47.55
2023-02-09T12:04:32.301Z,48.54
2023-02-09T12:07:05.799Z,49.49
2023-02-09T12:09:47.086Z,48.65
2023-02-09T12:12:25.129Z,47.96
2023-02-09T12:15:07.098Z,48.19
2023-02-09T12:17:45.602Z,47.77
2023-02-09T12:20:49.193Z,47.51
2023-02-09T12:23:20.467Z,48.33
2023-02-09T12:25:55.846Z,47.47
2023-02-09T12:28:43.526Z,48.06
2023-02-09T12:31:17.263Z,47.75
2023-02-09T12:34:14.828Z,47.41
2023-02-09T12:37:02.928Z,46.80
2023-02-09T12:39:32.372Z,47.32
2023-02-09T12:42:36.903Z,47.18
2023-02-09T12:45:32.525Z,47.13
2023-02-09T12:48:02.241Z,47.42
2023-02-09T12:50:45.613Z,47.22
2023-02-09T12:53:42.336Z,47.21
2023-02-09T12:56:35.578Z,47.64
2023-02-09T12:59:19.030Z,47.03
2023-02-09T13:02:13.759Z,47.40
2023-02-09T13:04:49.320Z,47.49
2023-02-09T13:07:28.658Z,47.55
2023-02-09T13:10:00.002Z,46.22
2023-02-09T13:12:35.815Z,46.12
2023-02-09T13:15:12.863Z,46.37
2023-02-09T13:17:45.846Z,47.00
2023-02-09T13:20:54.525Z,46.70
2023-02-09T13:23:33.209Z,47.07
2023-02-09T13:26:03.924Z,46.58
2023-02-09T13:28:33.226Z,45.37
2023-02-09T13:31:02.230Z,46.52
2023-02-09T13:33:42.401Z,46.65
2023-02-09T13:36:25.140Z,46.77
2023-02-09T13:38:53.921Z,46.09
2023-02-09T13:41:28.254Z,45.59
2023-02-09T13:43:57.558Z,45.77
2023-02-09T13:46:27.778Z,46.79
2023-02-09T13:48:56.301Z,46.60
2023-02-09T13:51:24.793Z,46.53
2023-02-09T13:54:00.619Z,46.11
2023-02-09T13:56:29.957Z,45.58
2023-02-09T13:58:59.867Z,45.75
2023-02-09T14:01:31.401Z,47.18
2023-02-09T14:04:04.629Z,46.27
2023-02-09T14:06:38.492Z,46.82
2023-02-09T14:09:13.384Z,46.46
2023-02-09T14:11:44.335Z,46.52
2023-02-09T14:14:20.483Z,46.96
2023-02-09T14:16:53.913Z,46.80
2023-02-09T14:19:27.599Z,47.23
2023-02-09T14:21:55.610Z,47.36
2023-02-09T14:24:24.312Z,46.94
2023-02-09T14:26:59.339Z,47.71
2023-02-09T14:29:30.466Z,48.64
2023-02-09T14:32:02.958Z,48.18
2023-02-09T14:34:35.274Z,47.75
2023-02-09T14:37:06.150Z,48.61
2023-02-09T14:39:34.019Z,48.73
2023-02-09T14:42:18.243Z,48.37
2023-02-09T14:44:50.690Z,48.46
2023-02-09T14:47:39.558Z,49.87
2023-02-09T14:50:09.618Z,49.57
2023-02-09T14:52:39.885Z,50.55
2023-02-09T14:55:16.706Z,52.21
2023-02-09T14:57:44.697Z,52.80
2023-02-09T15:00:22.179Z,53.69
2023-02-09T15:02:51.459Z,54.78
2023-02-09T15:05:19.896Z,55.01
2023-02-09T15:07:51.474Z,55.71
2023-02-09T15:10:24.756Z,56.14
2023-02-09T15:12:52.951Z,57.28
2023-02-09T15:15:23.432Z,57.53
2023-02-09T15:17:51.781Z,58.23
2023-02-09T15:20:24.459Z,58.87
2023-02-09T15:22:52.494Z,59.40
2023-02-09T15:25:20.728Z,61.07
2023-02-09T15:27:51.562Z,62.01
2023-02-09T15:30:23.746Z,62.35
2023-02-09T15:32:51.686Z,63.53
2023-02-09T15:35:22.111Z,63.76
2023-02-09T15:37:53.378Z,64.71
2023-02-09T15:40:39.176Z,64.91
2023-02-09T15:43:30.035Z,66.30
2023-02-09T15:46:16.750Z,67.58
2023-02-09T15:48:44.973Z,68.06
2023-02-09T15:51:12.944Z,68.71
2023-02-09T15:53:41.791Z,71.33
2023-02-09T15:56:10.359Z,72.05
2023-02-09T15:58:41.769Z,71.93
2023-02-09T16:01:14.528Z,72.43
2023-02-09T16:03:42.410Z,73.91
2023-02-09T16:06:15.502Z,75.10
2023-02-09T16:08:44.615Z,74.17
2023-02-09T16:11:19.629Z,74.35
2023-02-09T16:13:48.092Z,76.57
2023-02-09T16:16:18.443Z,77.41
2023-02-09T16:18:48.172Z,79.03
2023-02-09T16:21:23.928Z,81.00
2023-02-09T16:23:53.310Z,81.02
2023-02-09T16:26:21.307Z,82.28
2023-02-09T16:28:49.381Z,83.07
2023-02-09T16:31:19.492Z,83.64
2023-02-09T16:33:48.942Z,84.51
2023-02-09T16:36:18.939Z,83.91
2023-02-09T16:38:47.313Z,84.67
2023-02-09T16:41:30.560Z,85.58
2023-02-09T16:43:58.736Z,85.77
2023-02-09T16:46:31.658Z,85.96
2023-02-09T16:49:01.998Z,86.79
2023-02-09T16:51:29.907Z,87.25
2023-02-09T16:53:58.879Z,87.49
2023-02-09T16:56:27.554Z,87.54
2023-02-09T16:58:55.707Z,87.90
2023-02-09T17:01:24.873Z,89.11
2023-02-09T17:03:56.832Z,88.18
2023-02-09T17:06:29.454Z,90.12
2023-02-09T17:08:58.783Z,90.60
2023-02-09T17:11:29.217Z,91.27
2023-02-09T17:13:57.127Z,92.08
2023-02-09T17:16:30.050Z,93.45
2023-02-09T17:19:03.137Z,93.69
2023-02-09T17:21:35.366Z,94.71
2023-02-09T17:24:05.262Z,95.20
2023-02-09T17:26:33.194Z,95.79
2023-02-09T17:29:01.093Z,96.55
2023-02-09T17:31:43.753Z,97.98
2023-02-09T17:34:20.785Z,97.91
2023-02-09T17:36:48.679Z,98.43
2023-02-09T17:39:18.741Z,99.02
2023-02-09T17:41:48.626Z,99.12
2023-02-09T17:44:28.997Z,99.25
2023-02-09T17:47:06.613Z,99.46
2023-02-09T17:49:36.046Z,100.00
2023-02-09T17:52:04.067Z,100.00
2023-02-09T17:54:33.625Z,100.00
2023-02-09T17:57:01.531Z,100.00
2023-02-09T17:59:29.435Z,100.00
2023-02-09T18:01:58.905Z,100.00
2023-02-09T18:04:28.730Z,100.00
2023-02-09T18:06:58.376Z,100.00
2023-02-09T18:09:26.409Z,100.00
2023-02-09T18:12:02.044Z,100.00
2023-02-09T18:14:32.048Z,100.00
2023-02-09T18:17:00.319Z,100.00
2023-02-09T18:19:28.301Z,100.00
2023-02-09T18:21:59.416Z,100.00
2023-02-09T18:24:31.042Z,100.00
2023-02-09T18:26:59.139Z,100.00
2023-02-09T18:29:29.573Z,100.00
2023-02-09T18:31:58.025Z,100.00
2023-02-09T18:34:26.049Z,100.00
2023-02-09T18:36:53.987Z,100.00
2023-02-09T18:39:23.576Z,100.00
2023-02-09T18:41:54.656Z,100.00
2023-02-09T18:44:24.622Z,100.00
2023-02-09T18:46:52.544Z,100.00
2023-02-09T18:49:20.466Z,100.00
2023-02-09T18:51:48.689Z,100.00
2023-02-09T18:54:16.558Z,100.00
2023-02-09T18:56:45.916Z,100.00
2023-02-09T18:59:14.075Z,100.00
2023-02-09T19:01:42.085Z,100.00
2023-02-09T19:04:09.988Z,100.00
2023-02-09T19:06:38.684Z,100.00
2023-02-09T19:09:06.606Z,100.00
2023-02-09T19:11:34.530Z,100.00
2023-02-09T19:14:21.377Z,100.00
2023-02-09T19:16:49.335Z,100.00
2023-02-09T19:19:19.265Z,100.00
2023-02-09T19:21:47.809Z,100.00
2023-02-09T19:24:15.646Z,100.00
2023-02-09T19:26:43.519Z,100.00
2023-02-09T19:29:14.487Z,100.00
2023-02-09T19:31:42.374Z,100.00
2023-02-09T19:34:10.317Z,100.00
2023-02-09T19:36:38.769Z,100.00
2023-02-09T19:39:06.847Z,100.00
2023-02-09T19:41:34.778Z,100.00
2023-02-09T19:44:04.381Z,100.00
2023-02-09T19:46:33.984Z,100.00
2023-02-09T19:49:02.745Z,100.00
2023-02-09T19:51:30.681Z,100.00
2023-02-09T19:53:58.783Z,100.00
2023-02-09T19:56:26.940Z,100.00
2023-02-09T19:58:55.033Z,100.00
2023-02-09T20:01:25.065Z,100.00
2023-02-09T20:03:54.487Z,100.00
2023-02-09T20:06:22.393Z,100.00
2023-02-09T20:08:50.530Z,100.00
2023-02-09T20:11:20.708Z,100.00
2023-02-09T20:13:51.781Z,100.00
2023-02-09T20:16:22.571Z,100.00
2023-02-09T20:18:50.997Z,100.00
2023-02-09T20:21:22.652Z,100.00
2023-02-09T20:23:54.234Z,100.00
2023-02-09T20:26:26.444Z,100.00
2023-02-09T20:28:54.661Z,100.00
2023-02-09T20:31:24.200Z,100.00
2023-02-09T20:33:52.453Z,100.00
2023-02-09T20:36:24.544Z,100.00
2023-02-09T20:38:53.379Z,100.00
2023-02-09T20:41:21.278Z,100.00
2023-02-09T20:44:15.793Z,100.00
2023-02-09T20:46:58.379Z,100.00
2023-02-09T20:49:31.163Z,100.00
2023-02-09T20:52:00.421Z,100.00
2023-02-09T20:54:29.529Z,100.00
2023-02-09T20:56:57.583Z,100.00
2023-02-09T20:59:26.051Z,100.00
2023-02-09T21:02:00.657Z,100.00
2023-02-09T21:04:30.189Z,100.00
2023-02-09T21:07:00.326Z,100.00
2023-02-09T21:09:29.731Z,100.00
2023-02-09T21:11:58.222Z,100.00
2023-02-09T21:14:32.289Z,100.00
2023-02-09T21:17:07.114Z,100.00
2023-02-09T21:19:35.785Z,100.00
2023-02-09T21:22:03.681Z,100.00
2023-02-09T21:24:33.142Z,100.00
2023-02-09T21:27:01.432Z,100.00
2023-02-09T21:29:29.652Z,100.00
2023-02-09T21:32:01.311Z,100.00
2023-02-09T21:34:29.540Z,100.00
2023-02-09T21:36:57.515Z,100.00
2023-02-09T21:39:25.524Z,100.00
2023-02-09T21:42:12.273Z,100.00
2023-02-09T21:44:40.154Z,100.00
2023-02-09T21:47:08.355Z,100.00
2023-02-09T21:49:36.281Z,100.00
2023-02-09T21:52:04.296Z,100.00
2023-02-09T21:54:33.806Z,100.00
2023-02-09T21:57:03.665Z,100.00
2023-02-09T21:59:31.546Z,100.00
2023-02-09T22:01:59.455Z,100.00
2023-02-09T22:04:27.506Z,100.00
2023-02-09T22:06:55.427Z,100.00
2023-02-09T22:09:24.857Z,100.00
2023-02-09T22:11:52.809Z,100.00
2023-02-09T22:14:22.177Z,100.00
2023-02-09T22:16:50.177Z,100.00
2023-02-09T22:19:18.121Z,100.00
2023-02-09T22:21:46.002Z,100.00
2023-02-09T22:24:16.465Z,100.00
2023-02-09T22:26:44.693Z,100.00
2023-02-09T22:29:14.508Z,100.00
2023-02-09T22:31:44.362Z,100.00
2023-02-09T22:34:12.378Z,100.00
2023-02-09T22:36:40.569Z,100.00
2023-02-09T22:39:09.194Z,100.00
2023-02-09T22:41:37.067Z,100.00
2023-02-09T22:44:06.966Z,100.00
2023-02-09T22:46:37.837Z,100.00
2023-02-09T22:49:10.596Z,100.00
2023-02-09T22:51:38.557Z,100.00
2023-02-09T22:54:07.132Z,100.00
2023-02-09T22:56:35.571Z,100.00
2023-02-09T22:59:03.513Z,100.00
2023-02-09T23:01:32.169Z,100.00
2023-02-09T23:04:00.265Z,100.00
2023-02-09T23:06:30.296Z,100.00
2023-02-09T23:08:59.673Z,100.00
2023-02-09T23:11:28.771Z,100.00
2023-02-09T23:14:09.687Z,100.00
2023-02-09T23:16:40.479Z,100.00
2023-02-09T23:19:13.005Z,100.00
2023-02-09T23:21:44.498Z,100.00
2023-02-09T23:24:13.244Z,100.00
2023-02-09T23:26:41.648Z,100.00
2023-02-09T23:29:11.326Z,100.00
2023-02-09T23:31:39.681Z,100.00
2023-02-09T23:34:07.617Z,100.00
2023-02-09T23:36:36.457Z,100.00
2023-02-09T23:39:07.153Z,100.00
2023-02-09T23:41:35.942Z,100.00
2023-02-09T23:44:04.197Z,100.00
2023-02-09T23:46:32.430Z,100.00
2023-02-09T23:49:00.328Z,100.00
2023-02-09T23:51:30.167Z,100.00
2023-02-09T23:53:59.686Z,100.00
2023-02-09T23:56:31.900Z,100.00
2023-02-09T23:58:59.807Z,100.00
